Static map - map view · info · telemetry · weather · raw · status · beacons · messages · bulletins · browse · moving · my account
Callsign, ship name or locator: Clear       
This page displays positions on a static map. It is designed to provide maximum compatibility with mobile devices and old browsers. The map does not update automatically. Please reload the page to get an updated view. This view supports looking up multiple comma-separated callsigns. Example: Rautauoma,OH2RDK
1: SBPA 29°59.66' S 51°10.28' W - GG40JA91KI
Static map showing the positions
Zoom: 2 4 6 7 8 9 10 11 12 13 14
1: SBPA - 29°59.66' S 51°10.28' W - GG40JA91KI
Comment: Salgado Filho Airport METAR SBPA 090600Z 11008KT 9999 FEW030 SCT050 19/17 Q1017
Location: 29°59.66' S 51°10.28' W - locator GG40JA91KI - show map - static map
7.1 km Northeast bearing 53° from Porto Alegre, Porto Alegre, Rio Grande do Sul, Brazil [?]
8.6 km South bearing 172° from Canoas, Rio Grande do Sul, Brazil
91.8 km South bearing 180° from Caxias do Sul, Rio Grande do Sul, Brazil
Last position: 2021-12-09 06:28:15 UTC (56m11s ago)
2021-12-09 03:28:15 -03 local time at Porto Alegre, Brazil [?]
User guide · FAQ · Blog · Discussion group · Linking to aprs.fi · AIS sites · Service status · Database statistics · Advertising on aprs.fi · Technical details · API · Change log · Planned changes · Credits and thanks · Terms Of Service · iPhone/iPad APRS